Time;durP1;ratioP1;P1;durP2;ratioP2;P2;SDS_P1;SDS_P2;PMS_P1;PMS_P2;Temp;Humidity;BMP_temperature;BMP_pressure;BME280_temperature;BME280_humidity;BME280_pressure;Samples;Min_cycle;Max_cycle;Signal;HPM_P1;HPM_P2
2022/04/15 00:00:26;;;;;;;4.10;3.60;;;20.80;50.80;22.10;101529.00;;;;5068478;28;20233;-53
2022/04/15 00:02:52;;;;;;;4.10;3.67;;;20.80;51.20;22.10;101528.00;;;;5068725;28;20192;-53
2022/04/15 00:05:36;;;;;;;4.37;3.90;;;20.80;51.10;22.10;101524.00;;;;5067725;28;20579;-53
2022/04/15 00:08:03;;;;;;;4.17;3.77;;;20.80;50.90;22.10;101521.00;;;;5068494;28;20711;-53
2022/04/15 00:10:29;;;;;;;3.73;3.43;;;20.80;51.10;21.90;101527.00;;;;5067744;28;20575;-53
2022/04/15 00:12:56;;;;;;;4.30;3.80;;;20.70;50.80;22.10;101523.00;;;;5067654;28;20171;-53
2022/04/15 00:15:21;;;;;;;4.57;4.13;;;20.70;50.80;22.00;101523.00;;;;5067955;28;20169;-53
2022/04/15 00:17:47;;;;;;;4.50;3.80;;;20.70;50.80;22.00;101524.00;;;;5067980;28;20164;-53
2022/04/15 00:20:14;;;;;;;4.30;3.90;;;20.70;50.80;22.00;101520.00;;;;5068336;28;20168;-53
2022/04/15 00:22:40;;;;;;;3.87;3.57;;;20.70;51.00;21.90;101522.00;;;;5067076;28;20165;-53
2022/04/15 00:25:07;;;;;;;3.87;3.57;;;20.60;50.70;21.90;101523.00;;;;5067300;28;20884;-53
2022/04/15 00:27:34;;;;;;;3.87;3.47;;;20.60;50.90;21.90;101528.00;;;;5067775;28;20564;-53
2022/04/15 00:29:59;;;;;;;3.80;3.50;;;20.60;51.20;21.90;101532.00;;;;5068126;28;20205;-53
2022/04/15 00:32:26;;;;;;;4.27;3.87;;;20.60;51.20;21.90;101524.00;;;;5067740;28;20197;-53
2022/04/15 00:34:53;;;;;;;4.77;4.27;;;20.60;51.20;21.80;101531.00;;;;5067922;28;20169;-53
2022/04/15 00:37:18;;;;;;;4.00;3.63;;;20.60;50.80;21.80;101520.00;;;;5067674;28;20415;-53
2022/04/15 00:39:46;;;;;;;3.70;3.40;;;20.60;51.00;21.80;101529.00;;;;5068043;28;20168;-54
2022/04/15 00:42:12;;;;;;;4.87;3.87;;;20.60;51.20;21.80;101525.00;;;;5067791;28;20672;-53
2022/04/15 00:44:38;;;;;;;3.70;3.40;;;20.60;51.00;21.70;101540.00;;;;5067399;28;20165;-53
2022/04/15 00:47:43;;;;;;;4.20;3.70;;;20.50;50.60;21.70;101540.00;;;;5067400;28;20204;-53
2022/04/15 00:50:09;;;;;;;3.40;3.10;;;20.50;50.80;21.70;101538.00;;;;5053939;28;20199;-53
2022/04/15 00:52:39;;;;;;;3.53;3.23;;;20.40;50.90;21.60;101534.00;;;;5067694;28;20174;-53
2022/04/15 00:55:06;;;;;;;4.00;3.60;;;20.50;50.90;21.60;101539.00;;;;5049860;28;20240;-53
2022/04/15 00:57:33;;;;;;;3.70;3.40;;;20.50;51.50;21.60;101543.00;;;;5067295;28;20162;-53
2022/04/15 01:00:00;;;;;;;4.10;3.70;;;20.40;50.50;21.60;101534.00;;;;5067439;28;20180;-54
2022/04/15 01:02:26;;;;;;;3.83;3.50;;;20.40;50.80;21.50;101549.00;;;;5065726;28;20207;-53
2022/04/15 01:04:52;;;;;;;3.40;3.10;;;20.40;50.60;21.50;101546.00;;;;5048971;28;20174;-53
2022/04/15 01:07:19;;;;;;;3.70;3.40;;;20.40;51.10;21.50;101547.00;;;;5066715;28;20652;-53
2022/04/15 01:09:45;;;;;;;3.50;3.20;;;20.40;51.00;21.50;101549.00;;;;5067364;28;20730;-53
2022/04/15 01:12:10;;;;;;;3.93;3.33;;;20.40;50.80;21.50;101553.00;;;;5049522;28;20189;-54
2022/04/15 01:14:38;;;;;;;4.23;3.40;;;20.40;50.80;21.40;101550.00;;;;5048716;28;20170;-55
2022/04/15 01:17:04;;;;;;;3.80;3.50;;;20.40;51.10;21.40;101558.00;;;;5049370;28;20604;-54
2022/04/15 01:19:29;;;;;;;3.63;3.33;;;20.30;50.90;21.20;101554.00;;;;5068276;28;20171;-54
2022/04/15 01:21:56;;;;;;;3.50;3.20;;;20.30;51.00;21.40;101559.00;;;;5066563;28;20540;-54
2022/04/15 01:24:23;;;;;;;4.00;3.60;;;20.30;50.90;21.30;101561.00;;;;5066760;28;20676;-52
2022/04/15 01:26:49;;;;;;;3.53;3.23;;;20.30;50.90;21.30;101569.00;;;;5065223;28;20190;-53
2022/04/15 01:29:15;;;;;;;3.50;3.20;;;20.30;51.10;21.30;101564.00;;;;5065561;28;20234;-54
2022/04/15 01:31:41;;;;;;;3.60;3.30;;;20.30;50.70;21.30;101562.00;;;;5067053;28;20815;-52
2022/04/15 01:34:06;;;;;;;3.20;3.00;;;20.20;51.10;21.30;101571.00;;;;5066474;28;20589;-54
2022/04/15 01:36:32;;;;;;;3.43;3.13;;;20.20;50.80;21.30;101570.00;;;;5065148;28;20679;-52
2022/04/15 01:38:58;;;;;;;3.80;3.40;;;20.20;50.70;21.20;101562.00;;;;5066512;28;20165;-54
2022/04/15 01:41:24;;;;;;;3.77;3.33;;;20.10;50.70;21.20;101556.00;;;;5067084;28;20231;-52
2022/04/15 01:43:50;;;;;;;3.70;3.40;;;20.10;51.00;21.20;101565.00;;;;5065240;28;20294;-53
2022/04/15 01:46:15;;;;;;;3.97;3.67;;;20.10;51.00;21.20;101569.00;;;;5064900;28;20208;-53
2022/04/15 01:48:41;;;;;;;5.10;3.70;;;20.10;50.80;21.20;101579.00;;;;5066453;28;20734;-53
2022/04/15 01:51:07;;;;;;;3.90;3.60;;;20.10;50.90;21.10;101568.00;;;;5066967;28;20255;-52
2022/04/15 01:53:33;;;;;;;3.67;3.37;;;20.10;50.60;21.10;101573.00;;;;5065784;28;20170;-53
2022/04/15 01:55:58;;;;;;;5.70;4.37;;;20.10;50.70;21.10;101571.00;;;;5066266;28;20530;-53
2022/04/15 01:58:24;;;;;;;4.63;3.90;;;20.10;50.90;21.10;101579.00;;;;5066527;28;20177;-53
2022/04/15 02:00:50;;;;;;;4.50;4.13;;;20.10;50.80;21.00;101577.00;;;;5066042;28;20204;-53
2022/04/15 02:03:15;;;;;;;3.93;3.60;;;20.10;50.60;21.00;101577.00;;;;5065804;28;20181;-53
2022/04/15 02:05:41;;;;;;;4.30;3.90;;;20.00;50.40;21.00;101578.00;;;;5065902;28;20174;-54
2022/04/15 02:08:07;;;;;;;3.73;3.43;;;20.00;50.60;21.00;101587.00;;;;5066122;28;20184;-53
2022/04/15 02:10:33;;;;;;;3.73;3.43;;;20.00;50.50;21.00;101585.00;;;;5066322;28;20197;-54
2022/04/15 02:12:58;;;;;;;3.97;3.67;;;20.00;50.60;20.90;101587.00;;;;5066293;28;20174;-53
2022/04/15 02:15:24;;;;;;;4.30;3.90;;;20.00;50.70;20.90;101585.00;;;;5065500;28;20177;-53
2022/04/15 02:17:50;;;;;;;3.63;3.33;;;20.00;50.50;20.90;101594.00;;;;5065993;28;20174;-53
2022/04/15 02:20:16;;;;;;;4.20;3.80;;;20.00;50.50;20.80;101593.00;;;;5066613;28;20186;-52
2022/04/15 02:22:41;;;;;;;4.60;4.20;;;20.00;50.60;20.80;101590.00;;;;5066350;28;20658;-53
2022/04/15 02:25:08;;;;;;;4.33;3.50;;;19.90;50.50;20.80;101591.00;;;;5066044;28;20219;-53
2022/04/15 02:27:33;;;;;;;3.70;3.40;;;19.90;50.60;20.80;101597.00;;;;5066005;28;20271;-53
2022/04/15 02:29:59;;;;;;;4.03;3.70;;;19.80;50.50;20.80;101605.00;;;;5066444;28;20216;-53
2022/04/15 02:32:25;;;;;;;4.00;3.70;;;19.80;50.50;20.70;101603.00;;;;5065787;28;20193;-54
2022/04/15 02:34:51;;;;;;;4.43;4.03;;;19.80;50.50;20.70;101601.00;;;;5064604;28;20169;-54
2022/04/15 02:37:17;;;;;;;3.90;3.27;;;19.80;50.40;20.70;101600.00;;;;5065818;28;20666;-54
2022/04/15 02:39:43;;;;;;;3.80;3.50;;;19.80;50.40;20.70;101598.00;;;;5066002;28;20184;-54
2022/04/15 02:42:08;;;;;;;3.80;3.40;;;19.80;50.50;20.70;101591.00;;;;5065986;28;20468;-54
2022/04/15 02:44:36;;;;;;;3.70;3.40;;;19.80;50.70;20.60;101596.00;;;;5065150;28;20295;-54
2022/04/15 02:47:02;;;;;;;3.80;3.50;;;19.80;50.50;20.60;101598.00;;;;5064300;28;20177;-54
2022/04/15 02:49:28;;;;;;;4.23;3.60;;;19.80;50.40;20.60;101600.00;;;;5065822;28;20171;-54
2022/04/15 02:51:54;;;;;;;4.23;3.93;;;19.80;50.20;20.60;101596.00;;;;5065641;28;20224;-54
2022/04/15 02:54:20;;;;;;;4.07;3.70;;;19.70;50.00;20.60;101598.00;;;;5065254;28;20165;-54
2022/04/15 02:56:45;;;;;;;4.73;4.00;;;19.70;50.20;20.60;101593.00;;;;5065729;28;20223;-53
2022/04/15 02:59:11;;;;;;;4.37;3.97;;;19.70;50.00;20.60;101595.00;;;;5067292;28;20524;-53
2022/04/15 03:01:37;;;;;;;4.80;4.30;;;19.70;50.10;20.60;101599.00;;;;5066303;28;20817;-52
2022/04/15 03:04:02;;;;;;;4.33;3.93;;;19.70;50.10;20.60;101588.00;;;;5065854;28;20176;-53
2022/04/15 03:06:28;;;;;;;4.20;3.80;;;19.60;49.90;20.50;101601.00;;;;5065093;28;20208;-53
2022/04/15 03:08:55;;;;;;;4.30;3.90;;;19.60;50.20;20.50;101598.00;;;;5066399;28;20522;-53
2022/04/15 03:11:20;;;;;;;4.63;4.23;;;19.60;50.10;20.50;101593.00;;;;5066655;28;20210;-53
2022/04/15 03:13:46;;;;;;;4.70;4.30;;;19.60;50.00;20.50;101595.00;;;;5065888;28;20590;-53
2022/04/15 03:16:12;;;;;;;4.67;3.90;;;19.50;50.00;20.50;101584.00;;;;5065366;28;20161;-52
2022/04/15 03:18:38;;;;;;;4.40;4.00;;;19.50;50.60;20.40;101596.00;;;;5065605;28;20276;-53
2022/04/15 03:21:03;;;;;;;4.50;4.10;;;19.50;50.00;20.40;101598.00;;;;5067004;28;20196;-53
2022/04/15 03:23:29;;;;;;;4.60;4.20;;;19.50;50.20;20.40;101601.00;;;;5066247;28;20177;-53
2022/04/15 03:25:55;;;;;;;4.60;4.23;;;19.40;50.00;20.40;101598.00;;;;5064960;28;20685;-54
2022/04/15 03:28:21;;;;;;;5.17;4.00;;;19.40;50.10;20.40;101598.00;;;;5065464;28;20178;-53
2022/04/15 03:30:46;;;;;;;4.73;4.20;;;19.50;50.40;20.40;101592.00;;;;5065018;28;20208;-53
2022/04/15 03:33:12;;;;;;;4.93;4.43;;;19.40;49.80;20.40;101595.00;;;;5063777;28;20538;-54
2022/04/15 03:35:38;;;;;;;6.13;4.30;;;19.40;50.20;20.40;101596.00;;;;5064962;28;20227;-54
2022/04/15 03:38:03;;;;;;;4.67;3.80;;;19.40;49.80;20.40;101590.00;;;;5065086;28;20162;-54
2022/04/15 03:40:29;;;;;;;4.47;4.07;;;19.40;49.90;20.40;101598.00;;;;5064336;28;20628;-54
2022/04/15 03:42:56;;;;;;;5.70;5.20;;;19.40;49.70;20.30;101597.00;;;;5064742;28;20178;-54
2022/04/15 03:45:22;;;;;;;5.17;4.40;;;19.30;49.60;20.30;101608.00;;;;5065265;28;20177;-54
2022/04/15 03:47:51;;;;;;;4.80;3.60;;;19.30;49.60;20.30;101597.00;;;;5068250;28;20193;-54
2022/04/15 03:50:17;;;;;;;4.43;3.80;;;19.30;49.60;20.30;101597.00;;;;5068764;28;20557;-54
2022/04/15 03:52:46;;;;;;;4.30;3.57;;;19.30;49.60;20.20;101605.00;;;;5068753;28;20174;-52
2022/04/15 03:55:16;;;;;;;3.77;3.47;;;19.20;49.50;20.20;101606.00;;;;5068108;28;20165;-53
2022/04/15 03:57:42;;;;;;;3.90;3.50;;;19.30;49.60;20.20;101603.00;;;;5068500;28;20164;-53
2022/04/15 04:00:13;;;;;;;4.60;3.70;;;19.20;49.70;20.20;101609.00;;;;5068396;28;20165;-53
2022/04/15 04:02:44;;;;;;;3.67;3.30;;;19.20;50.20;20.20;101615.00;;;;5067958;28;20239;-53
2022/04/15 04:05:10;;;;;;;4.47;3.30;;;19.20;49.90;20.10;101615.00;;;;5066339;28;20635;-53
2022/04/15 04:07:37;;;;;;;3.30;3.10;;;19.20;49.80;20.10;101612.00;;;;5067513;28;20169;-53
2022/04/15 04:10:03;;;;;;;3.50;3.20;;;19.10;49.70;20.10;101621.00;;;;5067788;28;21003;-53
2022/04/15 04:12:33;;;;;;;3.90;3.50;;;19.10;49.80;20.10;101612.00;;;;5067106;28;20261;-53
2022/04/15 04:15:00;;;;;;;3.10;2.80;;;19.10;49.80;20.00;101613.00;;;;5066993;28;20173;-53
2022/04/15 04:17:26;;;;;;;3.73;3.43;;;19.10;50.40;20.00;101619.00;;;;5067060;28;20170;-53
2022/04/15 04:19:52;;;;;;;3.53;3.10;;;19.00;49.60;20.00;101622.00;;;;5067296;28;20169;-53
2022/04/15 04:22:17;;;;;;;3.90;3.40;;;19.00;49.80;20.00;101616.00;;;;5066594;28;20196;-53
2022/04/15 04:24:43;;;;;;;3.60;3.30;;;19.00;50.00;20.00;101614.00;;;;5066783;28;20164;-53
2022/04/15 04:27:09;;;;;;;3.33;2.97;;;19.00;49.90;20.00;101619.00;;;;5066812;28;20542;-53
2022/04/15 04:29:34;;;;;;;3.93;3.27;;;19.10;49.80;19.90;101623.00;;;;5067290;28;20170;-52
2022/04/15 04:32:00;;;;;;;3.67;3.30;;;19.00;50.00;19.90;101626.00;;;;5067358;28;20212;-53
2022/04/15 04:34:26;;;;;;;5.00;3.43;;;19.00;49.90;19.90;101628.00;;;;5066434;28;20653;-53
2022/04/15 04:36:52;;;;;;;4.87;3.00;;;19.00;50.10;19.90;101638.00;;;;5066892;28;20173;-54
2022/04/15 04:39:17;;;;;;;4.00;2.83;;;19.00;50.70;19.90;101631.00;;;;5060117;28;20182;-52
2022/04/15 04:41:43;;;;;;;4.63;2.90;;;18.90;51.00;19.90;101630.00;;;;5066087;28;20204;-53
2022/04/15 04:44:09;;;;;;;5.67;2.70;;;18.90;51.10;19.90;101631.00;;;;5063705;28;20170;-53
2022/04/15 04:46:35;;;;;;;5.30;3.00;;;18.80;51.10;19.90;101632.00;;;;5064464;28;20193;-53
2022/04/15 04:49:01;;;;;;;4.40;3.00;;;18.80;51.20;19.70;101634.00;;;;5049460;28;20172;-53
2022/04/15 04:51:27;;;;;;;3.70;3.40;;;18.80;51.40;19.90;101644.00;;;;5066765;28;20209;-53
2022/04/15 04:53:52;;;;;;;3.53;3.23;;;18.80;50.90;19.90;101644.00;;;;5048323;28;20172;-53
2022/04/15 04:56:18;;;;;;;3.20;3.00;;;18.90;50.50;19.90;101642.00;;;;5065534;28;20215;-53
2022/04/15 04:58:44;;;;;;;3.40;3.10;;;18.90;50.50;19.90;101651.00;;;;5066323;28;20162;-53
2022/04/15 05:01:09;;;;;;;4.40;3.27;;;18.80;50.30;19.80;101640.00;;;;5066271;28;20575;-55
2022/04/15 05:03:35;;;;;;;3.67;3.23;;;18.80;50.50;19.80;101647.00;;;;5066429;28;20170;-53
2022/04/15 05:06:01;;;;;;;3.73;3.43;;;18.80;50.20;19.80;101645.00;;;;5065791;28;20182;-54
2022/04/15 05:08:27;;;;;;;3.33;3.00;;;18.80;50.30;19.80;101657.00;;;;5066234;28;20185;-53
2022/04/15 05:10:52;;;;;;;3.10;2.80;;;18.80;50.20;19.70;101658.00;;;;5065719;28;20594;-54
2022/04/15 05:13:19;;;;;;;2.90;2.70;;;18.80;50.30;19.70;101657.00;;;;5066029;28;20197;-52
2022/04/15 05:15:45;;;;;;;3.30;3.00;;;18.70;50.40;19.70;101664.00;;;;5065760;28;20170;-54
2022/04/15 05:18:11;;;;;;;2.83;2.63;;;18.70;50.50;19.70;101673.00;;;;5065907;28;20182;-54
2022/04/15 05:20:37;;;;;;;3.47;3.00;;;18.70;50.80;19.60;101675.00;;;;5066568;28;20363;-54
2022/04/15 05:23:03;;;;;;;2.83;2.63;;;18.70;50.30;19.60;101675.00;;;;5067442;28;20188;-53
2022/04/15 05:25:29;;;;;;;4.03;3.10;;;18.70;50.40;19.60;101676.00;;;;5065391;28;20184;-54
2022/04/15 05:27:58;;;;;;;3.23;2.93;;;18.70;50.20;19.60;101676.00;;;;5065810;28;20187;-54
2022/04/15 05:30:24;;;;;;;3.70;3.40;;;18.70;50.40;19.60;101681.00;;;;5069423;28;20196;-53
2022/04/15 05:32:50;;;;;;;3.60;3.30;;;18.60;50.30;19.60;101686.00;;;;5067141;28;20173;-54
2022/04/15 05:35:16;;;;;;;3.07;2.70;;;18.70;50.60;19.60;101688.00;;;;5065043;28;20235;-53
2022/04/15 05:37:41;;;;;;;3.60;3.30;;;18.60;50.60;19.60;101692.00;;;;5065515;28;20217;-54
2022/04/15 05:40:08;;;;;;;4.07;3.27;;;18.60;50.30;19.50;101701.00;;;;5065750;28;20174;-54
2022/04/15 05:42:34;;;;;;;3.50;3.20;;;18.60;50.70;19.50;101694.00;;;;5065834;28;20191;-54
2022/04/15 05:44:59;;;;;;;3.47;3.17;;;18.60;50.40;19.50;101706.00;;;;5065221;28;20184;-54
2022/04/15 05:47:25;;;;;;;3.30;3.00;;;18.50;50.30;19.50;101705.00;;;;5064900;28;20184;-54
2022/04/15 05:49:51;;;;;;;3.20;2.90;;;18.60;50.50;19.50;101698.00;;;;5065374;28;20182;-54
2022/04/15 05:52:16;;;;;;;3.80;3.30;;;18.50;50.50;19.50;101716.00;;;;5065502;28;20689;-54
2022/04/15 05:54:42;;;;;;;3.33;3.03;;;18.50;50.30;19.40;101708.00;;;;5065413;28;20177;-53
2022/04/15 05:57:08;;;;;;;3.37;3.07;;;18.50;50.60;19.40;101717.00;;;;5065399;28;20173;-54
2022/04/15 05:59:33;;;;;;;3.93;3.20;;;18.50;50.30;19.40;101723.00;;;;5064994;28;20176;-53
2022/04/15 06:01:59;;;;;;;3.20;2.90;;;18.50;50.60;19.40;101725.00;;;;5065053;28;20207;-53
2022/04/15 06:04:25;;;;;;;3.57;2.80;;;18.50;50.90;19.40;101742.00;;;;5064945;28;20831;-54
2022/04/15 06:06:51;;;;;;;3.63;2.67;;;18.50;50.80;19.40;101736.00;;;;5063263;28;20179;-54
2022/04/15 06:09:16;;;;;;;3.10;2.80;;;18.40;50.80;19.30;101729.00;;;;5064192;28;20414;-54
2022/04/15 06:11:42;;;;;;;3.00;2.80;;;18.40;51.00;19.30;101738.00;;;;5066113;28;20205;-54
2022/04/15 06:14:08;;;;;;;3.50;3.20;;;18.40;51.70;19.30;101737.00;;;;5064852;28;20167;-54
2022/04/15 06:16:37;;;;;;;3.03;2.83;;;18.40;50.90;19.30;101739.00;;;;5064726;28;20180;-53
2022/04/15 06:19:05;;;;;;;3.77;2.97;;;18.40;50.90;19.30;101744.00;;;;5064541;28;20187;-53
2022/04/15 06:21:32;;;;;;;2.83;2.63;;;18.40;51.10;19.30;101750.00;;;;5064890;28;20196;-53
2022/04/15 06:23:58;;;;;;;4.03;3.17;;;18.40;51.30;19.30;101745.00;;;;5064135;28;20206;-52
2022/04/15 06:26:24;;;;;;;3.20;2.80;;;18.40;51.10;19.30;101763.00;;;;5064438;28;20171;-53
2022/04/15 06:28:49;;;;;;;3.70;3.40;;;18.40;51.30;19.30;101759.00;;;;5065439;28;20180;-53
2022/04/15 06:31:15;;;;;;;3.80;3.50;;;18.30;51.20;19.30;101778.00;;;;5064761;28;20232;-53
2022/04/15 06:33:41;;;;;;;3.70;3.40;;;18.30;51.30;19.30;101762.00;;;;5064260;28;20169;-53
2022/04/15 06:36:06;;;;;;;3.80;3.50;;;18.40;51.30;19.30;101766.00;;;;5064143;28;20169;-53
2022/04/15 06:38:32;;;;;;;3.80;3.50;;;18.30;51.20;19.30;101771.00;;;;5065353;28;20174;-54
2022/04/15 06:40:58;;;;;;;4.17;3.87;;;18.30;51.60;19.30;101773.00;;;;5063571;28;20201;-53
2022/04/15 06:43:23;;;;;;;4.53;3.80;;;18.30;51.50;19.30;101775.00;;;;5064958;28;20245;-54
2022/04/15 06:45:49;;;;;;;4.33;3.97;;;18.30;51.60;19.20;101778.00;;;;5064711;28;20170;-54
2022/04/15 06:48:15;;;;;;;4.30;4.00;;;18.30;51.60;19.20;101772.00;;;;5064157;28;20640;-54
2022/04/15 06:50:41;;;;;;;4.00;3.60;;;18.30;51.80;19.20;101780.00;;;;5064735;28;20228;-53
2022/04/15 06:53:07;;;;;;;4.70;4.30;;;18.30;51.90;19.20;101782.00;;;;5064372;28;20405;-52
2022/04/15 06:55:32;;;;;;;3.47;3.17;;;18.30;52.10;19.30;101786.00;;;;5064674;28;20182;-52
2022/04/15 06:57:58;;;;;;;4.93;4.43;;;18.20;52.10;19.20;101792.00;;;;5064634;28;20173;-53
2022/04/15 07:00:24;;;;;;;6.43;5.80;;;18.30;52.30;19.30;101792.00;;;;5064105;28;20562;-54
2022/04/15 07:02:50;;;;;;;5.53;5.03;;;18.20;52.40;19.20;101799.00;;;;5064726;28;20180;-52
2022/04/15 07:05:15;;;;;;;5.93;5.20;;;18.20;52.50;19.20;101799.00;;;;5064005;28;20594;-53
2022/04/15 07:07:41;;;;;;;6.77;6.17;;;18.20;52.60;19.30;101792.00;;;;4907195;28;20187;-54
2022/04/15 07:10:08;;;;;;;6.87;5.40;;;18.20;52.80;19.20;101802.00;;;;5062516;28;20185;-54
2022/04/15 07:12:34;;;;;;;5.43;4.93;;;18.20;52.90;19.20;101804.00;;;;5063176;28;20217;-51
2022/04/15 07:15:00;;;;;;;6.57;5.97;;;18.20;52.80;19.20;101806.00;;;;5063824;28;20199;-52
2022/04/15 07:17:26;;;;;;;7.03;6.33;;;18.20;52.60;19.20;101815.00;;;;5064030;28;20184;-54
2022/04/15 07:19:52;;;;;;;6.70;6.00;;;18.20;53.00;19.20;101817.00;;;;5065030;28;20254;-54
2022/04/15 07:22:18;;;;;;;7.53;6.83;;;18.20;52.90;19.20;101819.00;;;;5067779;28;20249;-52
2022/04/15 07:24:45;;;;;;;6.30;5.70;;;18.20;53.00;19.20;101815.00;;;;5067126;28;20177;-53
2022/04/15 07:27:10;;;;;;;7.50;6.70;;;18.20;52.90;19.20;101822.00;;;;5066953;28;20651;-54
2022/04/15 07:29:36;;;;;;;6.90;6.13;;;18.20;52.80;19.20;101825.00;;;;5068008;28;20238;-53
2022/04/15 07:32:03;;;;;;;6.33;5.73;;;18.20;52.90;19.20;101820.00;;;;5066831;28;20204;-53
2022/04/15 07:34:29;;;;;;;5.73;5.13;;;18.20;52.90;19.20;101818.00;;;;5065666;28;20176;-53
2022/04/15 07:36:57;;;;;;;7.23;6.50;;;18.20;52.70;19.20;101826.00;;;;5066753;28;20517;-53
2022/04/15 07:39:22;;;;;;;7.03;6.33;;;18.20;52.90;19.20;101830.00;;;;5067290;28;20178;-53
2022/04/15 07:41:48;;;;;;;7.03;5.87;;;18.20;53.10;19.20;101838.00;;;;5067224;28;20252;-53
2022/04/15 07:44:14;;;;;;;6.77;6.13;;;18.10;53.00;19.20;101830.00;;;;5065780;28;20170;-53
2022/04/15 07:46:41;;;;;;;6.40;5.60;;;18.20;53.10;19.20;101838.00;;;;5066107;28;20264;-52
2022/04/15 07:49:07;;;;;;;5.27;4.77;;;18.20;53.10;19.10;101830.00;;;;5067987;28;20246;-52
2022/04/15 07:51:33;;;;;;;5.40;4.90;;;18.20;53.10;19.10;101833.00;;;;5067040;28;20205;-53
2022/04/15 07:53:58;;;;;;;6.00;5.40;;;18.10;53.00;19.10;101836.00;;;;5067059;28;20179;-53
2022/04/15 07:56:24;;;;;;;5.20;4.70;;;18.10;53.00;19.10;101841.00;;;;5066514;28;20737;-53
2022/04/15 07:58:53;;;;;;;5.50;5.00;;;18.20;53.30;19.10;101850.00;;;;5067879;28;20175;-53
2022/04/15 08:01:19;;;;;;;5.20;4.80;;;18.10;53.20;19.10;101844.00;;;;5066596;28;20224;-53
2022/04/15 08:03:45;;;;;;;6.37;5.77;;;18.10;53.00;19.10;101853.00;;;;5066958;28;20215;-54
2022/04/15 08:06:11;;;;;;;6.33;5.00;;;18.10;53.30;19.10;101849.00;;;;5066531;28;20733;-53
2022/04/15 08:08:36;;;;;;;6.10;5.50;;;18.10;53.90;19.10;101848.00;;;;4828312;28;20174;-52
2022/04/15 08:11:02;;;;;;;5.77;5.20;;;18.10;54.10;19.10;101844.00;;;;5067205;28;20225;-52
2022/04/15 08:13:28;;;;;;;6.80;4.90;;;18.10;54.00;19.10;101854.00;;;;5067624;28;20179;-53
2022/04/15 08:15:54;;;;;;;5.53;5.03;;;18.20;54.40;19.10;101852.00;;;;5066445;28;20178;-53
2022/04/15 08:18:20;;;;;;;6.53;5.47;;;18.20;54.30;19.10;101858.00;;;;5067250;28;20172;-53
2022/04/15 08:20:47;;;;;;;5.57;4.80;;;18.20;54.30;19.10;101862.00;;;;5067265;28;20280;-53
2022/04/15 08:23:13;;;;;;;8.87;5.03;;;18.10;54.60;19.10;101870.00;;;;5066697;28;20174;-54
2022/04/15 08:25:38;;;;;;;11.10;5.70;;;18.10;54.90;19.10;101865.00;;;;5066892;28;20169;-53
2022/04/15 08:28:05;;;;;;;5.57;4.93;;;18.10;54.40;19.10;101863.00;;;;5065305;28;20179;-52
2022/04/15 08:30:33;;;;;;;5.67;5.17;;;18.10;54.20;19.10;101864.00;;;;5068065;28;20205;-53
2022/04/15 08:32:59;;;;;;;6.20;5.70;;;18.10;54.10;19.10;101863.00;;;;5066503;28;20223;-54
2022/04/15 08:35:24;;;;;;;5.90;5.00;;;18.10;53.90;19.10;101857.00;;;;5065810;28;20167;-53
2022/04/15 08:37:50;;;;;;;5.47;4.97;;;18.00;54.00;19.00;101860.00;;;;5065880;28;20190;-53
2022/04/15 08:40:16;;;;;;;5.73;5.20;;;18.00;54.20;19.00;101870.00;;;;5066293;28;20319;-54
2022/04/15 08:42:42;;;;;;;6.07;5.57;;;18.00;54.10;19.00;101864.00;;;;5066676;28;20196;-53
2022/04/15 08:45:08;;;;;;;5.90;5.40;;;18.10;53.70;19.00;101873.00;;;;5066838;28;20185;-53
2022/04/15 08:47:37;;;;;;;5.83;5.23;;;18.00;53.70;19.00;101865.00;;;;5066690;28;20174;-53
2022/04/15 08:50:08;;;;;;;6.23;5.63;;;18.00;53.80;19.00;101876.00;;;;5066087;28;20183;-54
2022/04/15 08:52:33;;;;;;;6.03;5.40;;;18.10;53.70;19.00;101885.00;;;;5065964;28;20279;-53
2022/04/15 08:54:59;;;;;;;6.57;5.83;;;18.10;53.30;19.00;101802.00;;;;5066414;28;20236;-53
2022/04/15 08:57:25;;;;;;;6.07;5.47;;;18.00;53.70;19.00;101873.00;;;;5065730;28;20770;-53
2022/04/15 08:59:53;;;;;;;6.40;5.73;;;18.00;53.50;19.00;101864.00;;;;5064915;28;20686;-53
2022/04/15 09:02:37;;;;;;;6.50;5.90;;;18.00;53.60;19.00;101877.00;;;;5066103;28;20281;-54
2022/04/15 09:05:06;;;;;;;6.00;5.40;;;18.00;53.60;19.00;101886.00;;;;5065808;28;20190;-55
2022/04/15 09:07:33;;;;;;;5.93;5.43;;;18.00;53.40;19.00;101883.00;;;;4992130;28;20166;-54
2022/04/15 09:10:00;;;;;;;6.13;5.57;;;18.10;53.30;19.00;101893.00;;;;5048575;28;20180;-54
2022/04/15 09:12:29;;;;;;;6.10;5.60;;;18.10;53.40;19.00;101886.00;;;;5065190;28;20195;-54
2022/04/15 09:15:13;;;;;;;5.30;4.80;;;18.10;53.60;19.00;101895.00;;;;5065183;28;20163;-54
2022/04/15 09:17:42;;;;;;;5.90;5.37;;;18.10;53.80;19.00;101898.00;;;;5068691;28;20761;-54
2022/04/15 09:20:09;;;;;;;5.73;5.23;;;18.10;53.60;19.00;101899.00;;;;5066642;28;20183;-53
2022/04/15 09:22:36;;;;;;;5.70;5.20;;;18.10;53.50;19.10;101899.00;;;;5066087;28;20169;-54
2022/04/15 09:25:02;;;;;;;5.20;4.80;;;18.00;53.60;19.00;101900.00;;;;5063867;28;20672;-53
2022/04/15 09:27:28;;;;;;;4.90;4.50;;;18.00;53.80;19.10;101898.00;;;;5065010;28;20174;-53
2022/04/15 09:29:54;;;;;;;4.80;4.40;;;18.10;53.80;19.10;101888.00;;;;5046866;28;20646;-53
2022/04/15 09:32:22;;;;;;;5.13;4.73;;;18.10;53.60;19.10;101904.00;;;;5065600;28;20565;-53
2022/04/15 09:35:03;;;;;;;5.37;4.67;;;18.10;53.80;19.10;101905.00;;;;5064073;28;20177;-53
2022/04/15 09:37:34;;;;;;;5.10;4.70;;;18.10;53.60;19.10;101905.00;;;;5063597;28;20652;-53
2022/04/15 09:40:17;;;;;;;4.70;4.30;;;18.10;53.50;19.10;101910.00;;;;5068635;28;20642;-53
2022/04/15 09:42:50;;;;;;;4.80;4.40;;;18.10;53.60;19.10;101904.00;;;;5068313;28;20154;-54
2022/04/15 09:45:21;;;;;;;5.27;4.50;;;18.10;53.40;19.10;101907.00;;;;5068531;28;20216;-54
2022/04/15 09:47:57;;;;;;;4.40;4.00;;;18.10;53.50;19.10;101895.00;;;;5068760;28;20168;-54
2022/04/15 09:50:42;;;;;;;4.30;3.90;;;18.20;53.50;19.10;101901.00;;;;5068846;28;20897;-54
2022/04/15 09:53:13;;;;;;;4.80;4.40;;;18.20;53.70;19.10;101903.00;;;;5067428;28;20159;-52
2022/04/15 09:55:48;;;;;;;4.97;4.57;;;18.20;53.50;19.10;101905.00;;;;5068109;28;20198;-53
2022/04/15 09:58:18;;;;;;;5.23;4.73;;;18.20;53.70;19.10;101917.00;;;;5069712;28;20171;-54
2022/04/15 10:00:48;;;;;;;4.97;4.37;;;18.20;53.50;19.20;101913.00;;;;5068147;28;20231;-53
2022/04/15 10:03:18;;;;;;;5.73;4.20;;;18.20;53.70;19.20;101907.00;;;;5068169;28;20193;-54
2022/04/15 10:05:44;;;;;;;4.50;3.83;;;18.20;54.00;19.20;101920.00;;;;5066683;28;20183;-52
2022/04/15 10:08:10;;;;;;;4.77;4.37;;;18.20;53.70;19.20;101912.00;;;;4968295;28;20737;-53
2022/04/15 10:10:36;;;;;;;4.80;4.40;;;18.20;53.70;19.20;101919.00;;;;5087113;28;20212;-52
2022/04/15 10:13:04;;;;;;;4.60;4.20;;;18.10;52.90;19.20;101902.00;;;;5086779;28;20173;-49
2022/04/15 10:15:31;;;;;;;4.70;4.20;;;18.10;53.30;19.20;101907.00;;;;5087297;28;20168;-49
2022/04/15 10:17:59;;;;;;;4.37;3.97;;;18.10;53.90;19.20;101906.00;;;;5088750;28;20233;-49
2022/04/15 10:20:26;;;;;;;5.80;3.73;;;18.10;54.50;19.20;101894.00;;;;5088546;28;20181;-48
2022/04/15 10:22:52;;;;;;;6.23;3.77;;;18.20;55.20;19.20;101899.00;;;;5088130;28;20185;-49
2022/04/15 10:25:18;;;;;;;4.33;3.97;;;18.20;55.10;19.20;101891.00;;;;5069841;28;20780;-49
2022/04/15 10:27:43;;;;;;;3.90;3.57;;;18.10;54.90;19.10;101899.00;;;;5088116;28;20179;-49
2022/04/15 10:30:20;;;;;;;5.90;3.80;;;18.10;55.20;19.20;101892.00;;;;5070281;28;20168;-48
2022/04/15 10:32:55;;;;;;;3.80;3.50;;;18.20;54.50;19.20;101895.00;;;;5087619;28;20202;-48
2022/04/15 10:35:34;;;;;;;4.90;3.63;;;18.10;54.90;19.20;101895.00;;;;5087624;28;20607;-48
2022/04/15 10:38:12;;;;;;;3.93;3.53;;;18.20;55.20;19.20;101882.00;;;;5088374;28;20182;-48
2022/04/15 10:40:43;;;;;;;3.60;3.30;;;18.20;55.20;19.20;101897.00;;;;5090296;28;20848;-49
2022/04/15 10:43:22;;;;;;;3.57;3.30;;;18.20;55.40;19.20;101897.00;;;;5088089;28;20161;-47
2022/04/15 10:45:48;;;;;;;3.97;3.67;;;18.20;55.80;19.20;101896.00;;;;5087874;28;20188;-48